BAW1456 EDDH-EHAM
Flight info
| Callsign | BAW1456 |
|---|---|
| Flight time | N/A |
| Altitude | 28000 |
| Route | WSN5G WSN N125 BLUFA |
| Aircraft | A20N/M-VGDW/C |
Departure
| Time | 2026-04-30 19:45 |
|---|---|
| Airport | Hamburg Helmut Schmidt Airport (EDDH) |
Arrival
| Time | N/A |
|---|---|
| Airport | Amsterdam Airport Schiphol (EHAM) |
| Time | Latitude | Longitude | Altitude | Speed | Heading |
|---|---|---|---|---|---|
| 2026-04-30 18:00 | 53.63208 | 10.00359 | 49 ft | 0 kts | 87° |
| 2026-04-30 18:15 | 53.63208 | 10.00342 | 49 ft | 0 kts | 87° |
| 2026-04-30 18:16 | 53.63208 | 10.00358 | 49 ft | 0 kts | 87° |
| 2026-04-30 19:26 | 53.63208 | 10.00344 | 49 ft | 2 kts | 87° |
| 2026-04-30 19:27 | 53.63206 | 10.00289 | 49 ft | 2 kts | 87° |
| 2026-04-30 19:27 | 53.63207 | 10.00216 | 49 ft | 4 kts | 109° |
| 2026-04-30 19:28 | 53.63222 | 10.00182 | 48 ft | 4 kts | 167° |
| 2026-04-30 19:28 | 53.63225 | 10.00181 | 48 ft | 0 kts | 177° |
| 2026-04-30 19:32 | 53.63122 | 10.00209 | 48 ft | 31 kts | 167° |
| 2026-04-30 19:32 | 53.62934 | 10.00127 | 45 ft | 26 kts | 215° |
| 2026-04-30 19:32 | 53.62864 | 10.00030 | 45 ft | 0 kts | 212° |
| 2026-04-30 19:33 | 53.62846 | 9.99970 | 45 ft | 11 kts | 245° |
| 2026-04-30 19:34 | 53.62840 | 9.99949 | 45 ft | 0 kts | 245° |
| 2026-04-30 19:42 | 53.62813 | 9.99808 | 46 ft | 25 kts | 275° |
| 2026-04-30 19:42 | 53.62834 | 9.99753 | 45 ft | 0 kts | 327° |
| 2026-04-30 19:44 | 53.62980 | 9.99628 | 47 ft | 68 kts | 335° |
| 2026-04-30 19:44 | 53.63696 | 9.99024 | 50 ft | 160 kts | 333° |
| 2026-04-30 19:44 | 53.64883 | 9.97950 | 519 ft | 216 kts | 332° |
| 2026-04-30 19:45 | 53.66335 | 9.96594 | 814 ft | 231 kts | 332° |
| 2026-04-30 19:45 | 53.67656 | 9.95380 | 949 ft | 205 kts | 333° |
| 2026-04-30 19:45 | 53.68902 | 9.94286 | 1410 ft | 201 kts | 335° |
| 2026-04-30 19:45 | 53.70136 | 9.93285 | 2436 ft | 197 kts | 336° |
| 2026-04-30 19:46 | 53.71330 | 9.91952 | 3381 ft | 217 kts | 304° |
| 2026-04-30 19:46 | 53.71741 | 9.89475 | 4480 ft | 233 kts | 262° |
| 2026-04-30 19:46 | 53.71263 | 9.86566 | 4943 ft | 280 kts | 248° |
| 2026-04-30 19:46 | 53.70556 | 9.83501 | 5220 ft | 280 kts | 246° |
| 2026-04-30 19:47 | 53.69822 | 9.80422 | 5338 ft | 283 kts | 247° |
| 2026-04-30 19:47 | 53.69356 | 9.78377 | 5395 ft | 281 kts | 248° |
| 2026-04-30 19:47 | 53.68457 | 9.74235 | 5518 ft | 282 kts | 249° |
| 2026-04-30 19:47 | 53.67808 | 9.71107 | 5606 ft | 282 kts | 250° |
| 2026-04-30 19:48 | 53.67177 | 9.67966 | 5696 ft | 283 kts | 250° |
| 2026-04-30 19:48 | 53.66555 | 9.64802 | 5783 ft | 285 kts | 250° |
| 2026-04-30 19:48 | 53.65861 | 9.61712 | 6061 ft | 283 kts | 244° |
| 2026-04-30 19:48 | 53.64978 | 9.58728 | 6419 ft | 286 kts | 239° |
| 2026-04-30 19:49 | 53.63982 | 9.55812 | 6785 ft | 289 kts | 237° |
| 2026-04-30 19:49 | 53.61787 | 9.50101 | 7467 ft | 291 kts | 233° |
| 2026-04-30 19:49 | 53.60634 | 9.47294 | 7807 ft | 293 kts | 233° |
| 2026-04-30 19:50 | 53.59453 | 9.44487 | 8158 ft | 293 kts | 232° |
| 2026-04-30 19:50 | 53.58256 | 9.41682 | 8515 ft | 296 kts | 232° |
| 2026-04-30 19:50 | 53.57054 | 9.38886 | 9026 ft | 296 kts | 232° |
| 2026-04-30 19:50 | 53.55835 | 9.36066 | 9542 ft | 300 kts | 232° |
| 2026-04-30 19:51 | 53.54606 | 9.33233 | 10064 ft | 302 kts | 232° |
| 2026-04-30 19:51 | 53.53360 | 9.30365 | 10571 ft | 307 kts | 232° |
| 2026-04-30 19:51 | 53.52034 | 9.27322 | 11055 ft | 338 kts | 232° |
| 2026-04-30 19:51 | 53.50584 | 9.24000 | 11553 ft | 368 kts | 232° |
| 2026-04-30 19:52 | 53.49021 | 9.20402 | 12056 ft | 394 kts | 232° |
| 2026-04-30 19:52 | 53.47438 | 9.16590 | 12556 ft | 398 kts | 234° |
| 2026-04-30 19:52 | 53.46000 | 9.12678 | 13061 ft | 402 kts | 239° |
| 2026-04-30 19:52 | 53.44736 | 9.08378 | 13583 ft | 409 kts | 246° |
| 2026-04-30 19:53 | 53.43835 | 9.03830 | 14112 ft | 413 kts | 256° |
| 2026-04-30 19:53 | 53.43433 | 8.99055 | 14591 ft | 416 kts | 268° |
| 2026-04-30 19:53 | 53.43688 | 8.94216 | 15067 ft | 418 kts | 283° |
| 2026-04-30 19:53 | 53.44734 | 8.89703 | 15551 ft | 416 kts | 302° |
| 2026-04-30 19:54 | 53.46617 | 8.86076 | 16046 ft | 412 kts | 325° |
| 2026-04-30 19:54 | 53.49174 | 8.84086 | 16553 ft | 405 kts | 352° |
| 2026-04-30 19:54 | 53.51923 | 8.84444 | 17014 ft | 397 kts | 25° |
| 2026-04-30 19:54 | 53.53951 | 8.87313 | 17410 ft | 391 kts | 63° |
| 2026-04-30 19:55 | 53.54266 | 8.91748 | 17611 ft | 397 kts | 108° |
| 2026-04-30 19:55 | 53.52351 | 8.94927 | 17686 ft | 412 kts | 164° |
| 2026-04-30 19:55 | 53.49688 | 8.93594 | 17704 ft | 431 kts | 233° |
| 2026-04-30 19:55 | 53.49390 | 8.88866 | 17684 ft | 429 kts | 305° |
| 2026-04-30 19:56 | 53.51844 | 8.86933 | 17631 ft | 405 kts | 20° |
| 2026-04-30 19:56 | 53.53403 | 8.90293 | 17569 ft | 393 kts | 97° |
| 2026-04-30 19:56 | 53.51663 | 8.93478 | 17521 ft | 413 kts | 173° |
| 2026-04-30 19:56 | 53.49217 | 8.91314 | 17478 ft | 433 kts | 247° |
| 2026-04-30 19:57 | 53.49621 | 8.86648 | 17434 ft | 423 kts | 321° |
| 2026-04-30 19:57 | 53.52239 | 8.85899 | 17400 ft | 398 kts | 36° |
| 2026-04-30 19:57 | 53.53189 | 8.89824 | 17357 ft | 394 kts | 110° |
| 2026-04-30 19:57 | 53.51034 | 8.92305 | 17333 ft | 416 kts | 184° |
| 2026-04-30 19:58 | 53.48817 | 8.89485 | 17333 ft | 431 kts | 255° |
| 2026-04-30 19:58 | 53.49526 | 8.84925 | 17347 ft | 421 kts | 325° |
| 2026-04-30 19:58 | 53.52175 | 8.84399 | 17352 ft | 398 kts | 36° |
| 2026-04-30 19:58 | 53.53208 | 8.88284 | 17363 ft | 392 kts | 105° |
| 2026-04-30 19:59 | 53.51215 | 8.91158 | 17379 ft | 412 kts | 176° |
| 2026-04-30 19:59 | 53.48785 | 8.88893 | 17401 ft | 431 kts | 246° |
| 2026-04-30 19:59 | 53.51652 | 8.82870 | 17423 ft | 401 kts | 25° |
| 2026-04-30 20:00 | 53.53101 | 8.86399 | 17443 ft | 391 kts | 96° |
| 2026-04-30 20:00 | 53.51465 | 8.89780 | 17464 ft | 409 kts | 166° |
| 2026-04-30 20:00 | 53.48847 | 8.88283 | 17485 ft | 431 kts | 235° |
| 2026-04-30 20:00 | 53.48618 | 8.83541 | 17496 ft | 428 kts | 304° |
| 2026-04-30 20:01 | 53.52856 | 8.84495 | 17506 ft | 392 kts | 86° |
| 2026-04-30 20:01 | 53.51578 | 8.88262 | 17517 ft | 407 kts | 156° |
| 2026-04-30 20:01 | 53.48744 | 8.88059 | 17532 ft | 420 kts | 190° |
| 2026-04-30 20:02 | 53.42847 | 8.87410 | 17960 ft | 437 kts | 172° |
| 2026-04-30 20:02 | 53.39811 | 8.88264 | 18490 ft | 447 kts | 164° |
| 2026-04-30 20:03 | 53.33875 | 8.91483 | 20225 ft | 448 kts | 158° |